Big Bear Station Historical Data
Daily Summary for February 9, 2019 Units:  English    Metric   Both
Next Day »
Daily Weekly Monthly Yearly Custom
  High: Low: Average:
Temperature: 34.2 °F 16.5 °F 25.2 °F
Dew Point: 28.8 °F 5.0 °F 20.5 °F
Humidity: 96% 52% 83%
Wind Speed: 5.8mph 0.0mph 1.1mph
Wind Gust: -999.0mph - -
Wind- - SSW
Pressure: 23.36 in 23.28 in -
Precipitation: 0.00 in    
Historical Graphs
 
 
Tabular Data for February 9, 2019
Time Temperature Dew Point Pressure Wind Wind Speed Wind Gust Humidity Rainfall Rate (Hourly)
00:14 17.1 °F 10.2 °F 23.33 in Calm   -999.0 mph 74% 0.00 in
00:30 16.7 °F 9.9 °F 23.32 in South 2.7 mph -999.0 mph 74% 0.00 in
00:45 16.5 °F 8.7 °F 23.33 in Calm   -999.0 mph 71% 0.00 in
01:00 16.7 °F 8.0 °F 23.32 in Calm   -999.0 mph 68% 0.00 in
01:15 17.2 °F 7.8 °F 23.32 in Calm   -999.0 mph 66% 0.00 in
01:30 17.8 °F 8.0 °F 23.32 in Calm   -999.0 mph 65% 0.00 in
01:46 17.8 °F 7.3 °F 23.32 in Calm   -999.0 mph 63% 0.00 in
02:01 18.3 °F 6.0 °F 23.32 in Calm   -999.0 mph 58% 0.00 in
02:16 19.8 °F 5.0 °F 23.31 in Calm   -999.0 mph 52% 0.00 in
02:31 19.4 °F 5.4 °F 23.31 in Calm   -999.0 mph 54% 0.00 in
02:46 18.5 °F 8.0 °F 23.31 in Calm   -999.0 mph 63% 0.00 in
03:02 18.1 °F 7.3 °F 23.30 in South 1.7 mph -999.0 mph 62% 0.00 in
03:17 18.1 °F 8.6 °F 23.30 in South 1.7 mph -999.0 mph 66% 0.00 in
03:32 18.1 °F 10.6 °F 23.30 in Calm   -999.0 mph 72% 0.00 in
03:47 17.8 °F 11.2 °F 23.30 in Calm   -999.0 mph 75% 0.00 in
04:02 17.6 °F 11.6 °F 23.29 in Calm   -999.0 mph 77% 0.00 in
04:18 18.3 °F 12.9 °F 23.29 in South 2.7 mph -999.0 mph 79% 0.00 in
04:33 18.3 °F 12.9 °F 23.29 in SSW 1.7 mph -999.0 mph 79% 0.00 in
04:48 18.7 °F 13.3 °F 23.28 in Calm   -999.0 mph 79% 0.00 in
05:03 19.0 °F 14.1 °F 23.28 in Calm   -999.0 mph 81% 0.00 in
05:19 19.6 °F 15.0 °F 23.28 in Calm   -999.0 mph 82% 0.00 in
05:34 19.8 °F 15.7 °F 23.28 in Calm   -999.0 mph 84% 0.00 in
05:50 20.7 °F 17.2 °F 23.28 in Calm   -999.0 mph 86% 0.00 in
06:05 21.7 °F 18.2 °F 23.28 in Calm   -999.0 mph 86% 0.00 in
06:20 23.7 °F 22.0 °F 23.28 in Calm   -999.0 mph 93% 0.00 in
06:35 23.7 °F 22.0 °F 23.28 in Calm   -999.0 mph 93% 0.00 in
06:50 23.9 °F 22.2 °F 23.28 in Calm   -999.0 mph 93% 0.00 in
07:06 25.5 °F 24.3 °F 23.28 in ENE 2.2 mph -999.0 mph 95% 0.00 in
07:21 26.6 °F 25.6 °F 23.28 in ESE 3.2 mph -999.0 mph 96% 0.00 in
07:36 27.1 °F 25.9 °F 23.28 in East 1.1 mph -999.0 mph 95% 0.00 in
07:51 27.7 °F 25.9 °F 23.29 in West 1.7 mph -999.0 mph 93% 0.00 in
08:06 27.9 °F 26.1 °F 23.29 in ESE 3.2 mph -999.0 mph 93% 0.00 in
08:22 28.6 °F 26.6 °F 23.30 in Calm   -999.0 mph 92% 0.00 in
08:37 29.7 °F 27.4 °F 23.29 in Calm   -999.0 mph 91% 0.00 in
08:52 30.7 °F 27.8 °F 23.30 in ESE 5.8 mph -999.0 mph 89% 0.00 in
09:07 30.9 °F 28.0 °F 23.30 in Calm   -999.0 mph 89% 0.00 in
09:22 32.0 °F 28.8 °F 23.30 in Calm   -999.0 mph 88% 0.00 in
09:38 32.0 °F 28.8 °F 23.30 in South 2.7 mph -999.0 mph 88% 0.00 in
09:53 31.3 °F 28.2 °F 23.31 in Calm   -999.0 mph 88% 0.00 in
10:08 30.2 °F 26.8 °F 23.32 in ESE 2.2 mph -999.0 mph 87% 0.00 in
10:23 30.7 °F 27.0 °F 23.32 in Calm   -999.0 mph 86% 0.00 in
10:39 33.4 °F 28.5 °F 23.32 in SW 3.7 mph -999.0 mph 82% 0.00 in
10:54 33.4 °F 28.8 °F 23.32 in SSW 2.2 mph -999.0 mph 83% 0.00 in
11:10 32.5 °F 27.6 °F 23.33 in WNW 3.2 mph -999.0 mph 82% 0.00 in
11:25 30.7 °F 26.2 °F 23.33 in WNW 2.7 mph -999.0 mph 83% 0.00 in
11:40 31.3 °F 24.6 °F 23.32 in NE 3.7 mph -999.0 mph 76% 0.00 in
11:55 32.2 °F 26.4 °F 23.32 in West 2.7 mph -999.0 mph 79% 0.00 in
12:10 32.5 °F 25.5 °F 23.32 in North 3.7 mph -999.0 mph 75% 0.00 in
12:26 33.6 °F 24.5 °F 23.32 in ESE 2.7 mph -999.0 mph 69% 0.00 in
12:41 34.2 °F 25.8 °F 23.32 in NNW 3.7 mph -999.0 mph 71% 0.00 in
12:56 33.4 °F 25.3 °F 23.32 in WNW 4.2 mph -999.0 mph 72% 0.00 in
13:11 32.2 °F 25.5 °F 23.31 in NNW 3.2 mph -999.0 mph 76% 0.00 in
13:26 30.9 °F 24.8 °F 23.32 in Calm   -999.0 mph 78% 0.00 in
13:42 30.4 °F 24.4 °F 23.32 in NNW 3.2 mph -999.0 mph 78% 0.00 in
13:57 30.2 °F 25.1 °F 23.32 in NNW 2.7 mph -999.0 mph 81% 0.00 in
14:12 30.9 °F 25.8 °F 23.32 in NNW 2.7 mph -999.0 mph 81% 0.00 in
14:27 31.6 °F 26.4 °F 23.32 in Calm   -999.0 mph 81% 0.00 in
14:43 32.2 °F 26.7 °F 23.32 in Calm   -999.0 mph 80% 0.00 in
14:58 31.3 °F 26.1 °F 23.33 in Calm   -999.0 mph 81% 0.00 in
15:13 31.5 °F 26.3 °F 23.33 in East 1.7 mph -999.0 mph 81% 0.00 in
15:28 31.3 °F 25.8 °F 23.33 in Calm   -999.0 mph 80% 0.00 in
15:44 30.7 °F 25.6 °F 23.33 in West 1.1 mph -999.0 mph 81% 0.00 in
15:59 29.8 °F 25.0 °F 23.33 in NNW 2.2 mph -999.0 mph 82% 0.00 in
16:14 29.7 °F 24.6 °F 23.33 in NW 3.2 mph -999.0 mph 81% 0.00 in
16:29 29.1 °F 24.6 °F 23.33 in Calm   -999.0 mph 83% 0.00 in
16:44 28.8 °F 24.6 °F 23.33 in Calm   -999.0 mph 84% 0.00 in
17:00 28.2 °F 24.3 °F 23.33 in SSE 2.7 mph -999.0 mph 85% 0.00 in
17:15 27.7 °F 24.1 °F 23.34 in Calm   -999.0 mph 86% 0.00 in
17:30 26.4 °F 22.8 °F 23.33 in Calm   -999.0 mph 86% 0.00 in
17:45 25.3 °F 22.0 °F 23.33 in Calm   -999.0 mph 87% 0.00 in
18:01 24.8 °F 21.8 °F 23.34 in Calm   -999.0 mph 88% 0.00 in
18:16 24.8 °F 22.0 °F 23.34 in Calm   -999.0 mph 89% 0.00 in
18:31 24.4 °F 21.9 °F 23.34 in Calm   -999.0 mph 90% 0.00 in
18:46 23.7 °F 21.2 °F 23.34 in Calm   -999.0 mph 90% 0.00 in
19:01 23.7 °F 21.5 °F 23.34 in SE 1.7 mph -999.0 mph 91% 0.00 in
19:17 23.7 °F 21.5 °F 23.34 in SSE 1.1 mph -999.0 mph 91% 0.00 in
19:32 23.5 °F 21.3 °F 23.34 in SSE 3.2 mph -999.0 mph 91% 0.00 in
19:47 23.4 °F 21.2 °F 23.34 in South 2.2 mph -999.0 mph 91% 0.00 in
20:02 23.7 °F 21.7 °F 23.35 in Calm   -999.0 mph 92% 0.00 in
20:17 23.5 °F 21.8 °F 23.35 in Calm   -999.0 mph 93% 0.00 in
20:33 22.8 °F 21.1 °F 23.35 in Calm   -999.0 mph 93% 0.00 in
20:48 22.5 °F 20.5 °F 23.35 in Calm   -999.0 mph 92% 0.00 in
21:03 22.5 °F 20.8 °F 23.35 in South 2.2 mph -999.0 mph 93% 0.00 in
21:18 22.1 °F 20.4 °F 23.35 in South 3.2 mph -999.0 mph 93% 0.00 in
21:33 22.3 °F 20.8 °F 23.36 in ESE 2.2 mph -999.0 mph 94% 0.00 in
21:49 22.3 °F 20.8 °F 23.36 in Calm   -999.0 mph 94% 0.00 in
22:04 22.1 °F 20.6 °F 23.35 in Calm   -999.0 mph 94% 0.00 in
22:19 22.5 °F 21.0 °F 23.35 in Calm   -999.0 mph 94% 0.00 in
22:35 22.5 °F 21.0 °F 23.35 in Calm   -999.0 mph 94% 0.00 in
22:50 22.1 °F 20.6 °F 23.35 in Calm   -999.0 mph 94% 0.00 in
23:05 21.4 °F 19.7 °F 23.35 in Calm   -999.0 mph 93% 0.00 in
23:20 20.7 °F 18.2 °F 23.35 in Calm   -999.0 mph 90% 0.00 in
23:35 19.9 °F 17.4 °F 23.35 in Calm   -999.0 mph 90% 0.00 in
23:51 20.3 °F 18.6 °F 23.34 in SSE 2.2 mph -999.0 mph 93% 0.00 in
Big Bear CA Weather